sensor_id;sensor_type;location;lat;lon;timestamp;P1;durP1;ratioP1;P2;durP2;ratioP2
5752;SDS011;2901;42.140;24.760;2024-01-11T00:01:12;47.23;;;24.77;;
5752;SDS011;2901;42.140;24.760;2024-01-11T00:03:37;44.80;;;25.27;;
5752;SDS011;2901;42.140;24.760;2024-01-11T00:06:03;42.50;;;23.20;;
5752;SDS011;2901;42.140;24.760;2024-01-11T00:08:29;39.33;;;21.97;;
5752;SDS011;2901;42.140;24.760;2024-01-11T00:10:55;38.60;;;23.83;;
5752;SDS011;2901;42.140;24.760;2024-01-11T00:13:20;42.50;;;22.73;;
5752;SDS011;2901;42.140;24.760;2024-01-11T00:15:46;33.70;;;20.60;;
5752;SDS011;2901;42.140;24.760;2024-01-11T00:18:11;36.93;;;20.10;;
5752;SDS011;2901;42.140;24.760;2024-01-11T00:20:37;39.40;;;21.53;;
5752;SDS011;2901;42.140;24.760;2024-01-11T00:23:02;33.20;;;20.53;;
5752;SDS011;2901;42.140;24.760;2024-01-11T00:25:27;38.97;;;22.33;;
5752;SDS011;2901;42.140;24.760;2024-01-11T00:27:53;41.60;;;23.50;;
5752;SDS011;2901;42.140;24.760;2024-01-11T00:30:18;38.30;;;22.90;;
5752;SDS011;2901;42.140;24.760;2024-01-11T00:32:44;43.67;;;23.57;;
5752;SDS011;2901;42.140;24.760;2024-01-11T00:35:09;41.70;;;24.30;;
5752;SDS011;2901;42.140;24.760;2024-01-11T00:37:34;40.03;;;22.87;;
5752;SDS011;2901;42.140;24.760;2024-01-11T00:40:00;44.47;;;23.40;;
5752;SDS011;2901;42.140;24.760;2024-01-11T00:42:25;37.87;;;21.30;;
5752;SDS011;2901;42.140;24.760;2024-01-11T00:44:50;44.60;;;23.03;;
5752;SDS011;2901;42.140;24.760;2024-01-11T00:47:16;37.27;;;22.93;;
5752;SDS011;2901;42.140;24.760;2024-01-11T00:49:42;44.63;;;23.47;;
5752;SDS011;2901;42.140;24.760;2024-01-11T00:52:07;43.33;;;23.40;;
5752;SDS011;2901;42.140;24.760;2024-01-11T00:54:34;38.47;;;22.60;;
5752;SDS011;2901;42.140;24.760;2024-01-11T00:57:00;39.40;;;23.37;;
5752;SDS011;2901;42.140;24.760;2024-01-11T00:59:26;42.93;;;22.50;;
5752;SDS011;2901;42.140;24.760;2024-01-11T01:01:51;42.23;;;23.27;;
5752;SDS011;2901;42.140;24.760;2024-01-11T01:04:17;40.13;;;23.80;;
5752;SDS011;2901;42.140;24.760;2024-01-11T01:06:42;38.30;;;21.80;;
5752;SDS011;2901;42.140;24.760;2024-01-11T01:09:08;44.97;;;22.97;;
5752;SDS011;2901;42.140;24.760;2024-01-11T01:11:33;41.43;;;22.40;;
5752;SDS011;2901;42.140;24.760;2024-01-11T01:13:59;38.37;;;21.77;;
5752;SDS011;2901;42.140;24.760;2024-01-11T01:16:25;34.10;;;22.03;;
5752;SDS011;2901;42.140;24.760;2024-01-11T01:18:50;32.83;;;21.10;;
5752;SDS011;2901;42.140;24.760;2024-01-11T01:21:16;41.10;;;22.67;;
5752;SDS011;2901;42.140;24.760;2024-01-11T01:23:41;33.00;;;21.30;;
5752;SDS011;2901;42.140;24.760;2024-01-11T01:26:07;39.97;;;23.60;;
5752;SDS011;2901;42.140;24.760;2024-01-11T01:28:32;42.00;;;23.60;;
5752;SDS011;2901;42.140;24.760;2024-01-11T01:30:58;39.37;;;22.60;;
5752;SDS011;2901;42.140;24.760;2024-01-11T01:33:23;39.07;;;22.57;;
5752;SDS011;2901;42.140;24.760;2024-01-11T01:35:48;37.73;;;23.70;;
5752;SDS011;2901;42.140;24.760;2024-01-11T01:38:14;33.47;;;22.50;;
5752;SDS011;2901;42.140;24.760;2024-01-11T01:40:39;40.70;;;22.93;;
5752;SDS011;2901;42.140;24.760;2024-01-11T01:43:08;39.63;;;23.77;;
5752;SDS011;2901;42.140;24.760;2024-01-11T01:45:34;41.13;;;23.50;;
5752;SDS011;2901;42.140;24.760;2024-01-11T01:48:00;48.47;;;24.03;;
5752;SDS011;2901;42.140;24.760;2024-01-11T01:50:26;41.93;;;24.70;;
5752;SDS011;2901;42.140;24.760;2024-01-11T01:52:51;45.63;;;25.50;;
5752;SDS011;2901;42.140;24.760;2024-01-11T01:55:17;41.17;;;24.03;;
5752;SDS011;2901;42.140;24.760;2024-01-11T01:57:44;40.83;;;22.90;;
5752;SDS011;2901;42.140;24.760;2024-01-11T02:00:12;49.40;;;24.10;;
5752;SDS011;2901;42.140;24.760;2024-01-11T02:02:39;39.03;;;23.77;;
5752;SDS011;2901;42.140;24.760;2024-01-11T02:05:08;43.50;;;25.30;;
5752;SDS011;2901;42.140;24.760;2024-01-11T02:07:34;43.23;;;25.00;;
5752;SDS011;2901;42.140;24.760;2024-01-11T02:10:00;47.23;;;24.47;;
5752;SDS011;2901;42.140;24.760;2024-01-11T02:12:26;44.27;;;25.67;;
5752;SDS011;2901;42.140;24.760;2024-01-11T02:14:53;40.83;;;24.23;;
5752;SDS011;2901;42.140;24.760;2024-01-11T02:17:18;38.47;;;23.83;;
5752;SDS011;2901;42.140;24.760;2024-01-11T02:19:44;38.17;;;22.87;;
5752;SDS011;2901;42.140;24.760;2024-01-11T02:22:12;38.37;;;23.30;;
5752;SDS011;2901;42.140;24.760;2024-01-11T02:24:45;36.83;;;24.50;;
5752;SDS011;2901;42.140;24.760;2024-01-11T02:27:10;37.90;;;23.00;;
5752;SDS011;2901;42.140;24.760;2024-01-11T02:29:36;35.77;;;20.93;;
5752;SDS011;2901;42.140;24.760;2024-01-11T02:32:01;33.13;;;19.13;;
5752;SDS011;2901;42.140;24.760;2024-01-11T02:34:27;35.97;;;20.70;;
5752;SDS011;2901;42.140;24.760;2024-01-11T02:36:54;32.67;;;18.93;;
5752;SDS011;2901;42.140;24.760;2024-01-11T02:39:20;30.93;;;19.50;;
5752;SDS011;2901;42.140;24.760;2024-01-11T02:41:49;34.13;;;20.07;;
5752;SDS011;2901;42.140;24.760;2024-01-11T02:44:16;26.53;;;16.53;;
5752;SDS011;2901;42.140;24.760;2024-01-11T02:46:41;27.87;;;18.27;;
5752;SDS011;2901;42.140;24.760;2024-01-11T02:49:07;28.83;;;18.43;;
5752;SDS011;2901;42.140;24.760;2024-01-11T02:51:32;28.37;;;17.63;;
5752;SDS011;2901;42.140;24.760;2024-01-11T02:53:58;27.37;;;18.47;;
5752;SDS011;2901;42.140;24.760;2024-01-11T02:56:23;31.30;;;17.97;;
5752;SDS011;2901;42.140;24.760;2024-01-11T02:58:49;27.90;;;17.77;;
5752;SDS011;2901;42.140;24.760;2024-01-11T03:01:14;25.93;;;17.20;;
5752;SDS011;2901;42.140;24.760;2024-01-11T03:03:40;26.20;;;16.27;;
5752;SDS011;2901;42.140;24.760;2024-01-11T03:06:05;22.70;;;16.10;;
5752;SDS011;2901;42.140;24.760;2024-01-11T03:08:31;25.40;;;16.47;;
5752;SDS011;2901;42.140;24.760;2024-01-11T03:10:56;22.77;;;15.80;;
5752;SDS011;2901;42.140;24.760;2024-01-11T03:13:22;23.60;;;16.17;;
5752;SDS011;2901;42.140;24.760;2024-01-11T03:15:48;25.93;;;15.37;;
5752;SDS011;2901;42.140;24.760;2024-01-11T03:18:13;23.47;;;16.40;;
5752;SDS011;2901;42.140;24.760;2024-01-11T03:20:39;19.17;;;15.00;;
5752;SDS011;2901;42.140;24.760;2024-01-11T03:23:05;22.50;;;14.83;;
5752;SDS011;2901;42.140;24.760;2024-01-11T03:25:30;24.90;;;15.83;;
5752;SDS011;2901;42.140;24.760;2024-01-11T03:27:57;23.63;;;15.83;;
5752;SDS011;2901;42.140;24.760;2024-01-11T03:30:23;24.53;;;15.37;;
5752;SDS011;2901;42.140;24.760;2024-01-11T03:32:49;25.90;;;16.40;;
5752;SDS011;2901;42.140;24.760;2024-01-11T03:35:14;23.73;;;15.33;;
5752;SDS011;2901;42.140;24.760;2024-01-11T03:37:40;24.07;;;15.10;;
5752;SDS011;2901;42.140;24.760;2024-01-11T03:40:05;21.27;;;14.53;;
5752;SDS011;2901;42.140;24.760;2024-01-11T03:42:31;21.73;;;14.43;;
5752;SDS011;2901;42.140;24.760;2024-01-11T03:44:57;19.27;;;14.17;;
5752;SDS011;2901;42.140;24.760;2024-01-11T03:47:22;17.57;;;12.30;;
5752;SDS011;2901;42.140;24.760;2024-01-11T03:49:48;17.80;;;12.90;;
5752;SDS011;2901;42.140;24.760;2024-01-11T03:52:13;15.00;;;9.23;;
5752;SDS011;2901;42.140;24.760;2024-01-11T03:54:38;11.23;;;10.00;;
5752;SDS011;2901;42.140;24.760;2024-01-11T03:57:04;10.10;;;8.90;;
5752;SDS011;2901;42.140;24.760;2024-01-11T03:59:30;10.40;;;9.03;;
5752;SDS011;2901;42.140;24.760;2024-01-11T04:01:55;13.87;;;8.67;;
5752;SDS011;2901;42.140;24.760;2024-01-11T04:04:22;9.07;;;8.33;;
5752;SDS011;2901;42.140;24.760;2024-01-11T04:06:48;12.60;;;9.53;;
5752;SDS011;2901;42.140;24.760;2024-01-11T04:09:14;10.00;;;8.97;;
5752;SDS011;2901;42.140;24.760;2024-01-11T04:11:40;12.60;;;9.03;;
5752;SDS011;2901;42.140;24.760;2024-01-11T04:14:05;14.17;;;8.90;;
5752;SDS011;2901;42.140;24.760;2024-01-11T04:16:31;9.17;;;6.90;;
5752;SDS011;2901;42.140;24.760;2024-01-11T04:18:56;11.07;;;8.97;;
5752;SDS011;2901;42.140;24.760;2024-01-11T04:23:53;9.07;;;8.17;;
5752;SDS011;2901;42.140;24.760;2024-01-11T04:26:19;17.70;;;8.70;;
5752;SDS011;2901;42.140;24.760;2024-01-11T04:28:44;10.90;;;9.30;;
5752;SDS011;2901;42.140;24.760;2024-01-11T04:31:10;13.37;;;8.53;;
5752;SDS011;2901;42.140;24.760;2024-01-11T04:33:36;17.90;;;8.13;;
5752;SDS011;2901;42.140;24.760;2024-01-11T04:36:05;14.23;;;8.67;;
5752;SDS011;2901;42.140;24.760;2024-01-11T04:38:31;11.50;;;8.87;;
5752;SDS011;2901;42.140;24.760;2024-01-11T04:40:56;12.30;;;9.00;;
5752;SDS011;2901;42.140;24.760;2024-01-11T04:43:21;12.80;;;9.50;;
5752;SDS011;2901;42.140;24.760;2024-01-11T04:45:47;14.73;;;10.23;;
5752;SDS011;2901;42.140;24.760;2024-01-11T04:48:13;16.13;;;11.13;;
5752;SDS011;2901;42.140;24.760;2024-01-11T04:50:38;13.07;;;10.40;;
5752;SDS011;2901;42.140;24.760;2024-01-11T04:53:04;17.70;;;9.63;;
5752;SDS011;2901;42.140;24.760;2024-01-11T04:55:29;14.40;;;10.53;;
5752;SDS011;2901;42.140;24.760;2024-01-11T04:57:54;12.90;;;9.87;;
5752;SDS011;2901;42.140;24.760;2024-01-11T05:00:20;11.93;;;10.67;;
5752;SDS011;2901;42.140;24.760;2024-01-11T05:02:45;11.60;;;10.37;;
5752;SDS011;2901;42.140;24.760;2024-01-11T05:05:11;17.80;;;11.97;;
5752;SDS011;2901;42.140;24.760;2024-01-11T05:07:36;17.77;;;11.93;;
5752;SDS011;2901;42.140;24.760;2024-01-11T05:10:01;17.10;;;12.20;;
5752;SDS011;2901;42.140;24.760;2024-01-11T05:12:27;14.90;;;11.97;;
5752;SDS011;2901;42.140;24.760;2024-01-11T05:14:53;20.77;;;10.77;;
5752;SDS011;2901;42.140;24.760;2024-01-11T05:17:18;18.73;;;10.70;;
5752;SDS011;2901;42.140;24.760;2024-01-11T05:19:43;18.70;;;11.80;;
5752;SDS011;2901;42.140;24.760;2024-01-11T05:22:09;16.40;;;11.67;;
5752;SDS011;2901;42.140;24.760;2024-01-11T05:24:34;14.07;;;12.17;;
5752;SDS011;2901;42.140;24.760;2024-01-11T05:26:59;22.27;;;15.30;;
5752;SDS011;2901;42.140;24.760;2024-01-11T05:29:25;21.67;;;12.07;;
5752;SDS011;2901;42.140;24.760;2024-01-11T05:31:50;14.87;;;11.70;;
5752;SDS011;2901;42.140;24.760;2024-01-11T05:34:16;22.50;;;12.70;;
5752;SDS011;2901;42.140;24.760;2024-01-11T05:36:41;20.30;;;12.97;;
5752;SDS011;2901;42.140;24.760;2024-01-11T05:39:06;17.33;;;12.17;;
5752;SDS011;2901;42.140;24.760;2024-01-11T05:41:32;19.43;;;12.03;;
5752;SDS011;2901;42.140;24.760;2024-01-11T05:43:57;19.60;;;13.47;;
5752;SDS011;2901;42.140;24.760;2024-01-11T05:46:23;18.03;;;12.43;;
5752;SDS011;2901;42.140;24.760;2024-01-11T05:48:48;21.83;;;14.13;;
5752;SDS011;2901;42.140;24.760;2024-01-11T05:51:13;21.10;;;11.87;;
5752;SDS011;2901;42.140;24.760;2024-01-11T05:53:39;20.97;;;13.47;;
5752;SDS011;2901;42.140;24.760;2024-01-11T05:56:08;23.17;;;14.10;;
5752;SDS011;2901;42.140;24.760;2024-01-11T05:58:34;15.07;;;12.03;;
5752;SDS011;2901;42.140;24.760;2024-01-11T06:01:01;22.40;;;12.97;;
5752;SDS011;2901;42.140;24.760;2024-01-11T06:03:27;16.27;;;11.43;;
5752;SDS011;2901;42.140;24.760;2024-01-11T06:05:53;31.13;;;14.97;;
5752;SDS011;2901;42.140;24.760;2024-01-11T06:08:18;25.20;;;14.00;;
5752;SDS011;2901;42.140;24.760;2024-01-11T06:10:44;19.93;;;14.40;;
5752;SDS011;2901;42.140;24.760;2024-01-11T06:13:09;15.97;;;12.43;;
5752;SDS011;2901;42.140;24.760;2024-01-11T06:15:34;17.53;;;13.10;;
5752;SDS011;2901;42.140;24.760;2024-01-11T06:18:00;21.97;;;13.07;;
5752;SDS011;2901;42.140;24.760;2024-01-11T06:20:25;28.20;;;14.03;;
5752;SDS011;2901;42.140;24.760;2024-01-11T06:22:50;21.60;;;13.00;;
5752;SDS011;2901;42.140;24.760;2024-01-11T06:25:16;19.20;;;12.20;;
5752;SDS011;2901;42.140;24.760;2024-01-11T06:27:43;17.87;;;12.67;;
5752;SDS011;2901;42.140;24.760;2024-01-11T06:30:09;16.77;;;12.30;;
5752;SDS011;2901;42.140;24.760;2024-01-11T06:32:34;25.00;;;12.57;;
5752;SDS011;2901;42.140;24.760;2024-01-11T06:35:00;16.93;;;12.60;;
5752;SDS011;2901;42.140;24.760;2024-01-11T06:37:27;19.30;;;12.03;;
5752;SDS011;2901;42.140;24.760;2024-01-11T06:39:52;15.37;;;11.07;;
5752;SDS011;2901;42.140;24.760;2024-01-11T06:42:18;15.87;;;11.20;;
5752;SDS011;2901;42.140;24.760;2024-01-11T06:44:43;17.50;;;11.90;;
5752;SDS011;2901;42.140;24.760;2024-01-11T06:47:08;20.17;;;11.77;;
5752;SDS011;2901;42.140;24.760;2024-01-11T06:49:34;21.00;;;10.90;;
5752;SDS011;2901;42.140;24.760;2024-01-11T06:52:02;15.40;;;11.33;;
5752;SDS011;2901;42.140;24.760;2024-01-11T06:54:29;17.60;;;10.60;;
5752;SDS011;2901;42.140;24.760;2024-01-11T06:56:56;15.93;;;11.07;;
5752;SDS011;2901;42.140;24.760;2024-01-11T06:59:21;17.67;;;13.63;;
5752;SDS011;2901;42.140;24.760;2024-01-11T07:01:47;15.97;;;10.80;;
5752;SDS011;2901;42.140;24.760;2024-01-11T07:04:12;14.93;;;11.67;;
5752;SDS011;2901;42.140;24.760;2024-01-11T07:06:37;15.77;;;11.37;;
5752;SDS011;2901;42.140;24.760;2024-01-11T07:09:03;15.43;;;10.40;;
5752;SDS011;2901;42.140;24.760;2024-01-11T07:11:28;12.27;;;10.60;;
5752;SDS011;2901;42.140;24.760;2024-01-11T07:13:54;11.50;;;10.23;;
5752;SDS011;2901;42.140;24.760;2024-01-11T07:16:20;17.93;;;9.80;;
5752;SDS011;2901;42.140;24.760;2024-01-11T07:18:46;10.50;;;9.17;;
5752;SDS011;2901;42.140;24.760;2024-01-11T07:21:11;14.63;;;10.27;;
5752;SDS011;2901;42.140;24.760;2024-01-11T07:23:36;14.03;;;10.53;;
5752;SDS011;2901;42.140;24.760;2024-01-11T07:26:02;13.17;;;9.80;;
5752;SDS011;2901;42.140;24.760;2024-01-11T07:28:27;21.80;;;9.33;;
5752;SDS011;2901;42.140;24.760;2024-01-11T07:30:53;10.30;;;9.37;;
5752;SDS011;2901;42.140;24.760;2024-01-11T07:33:19;17.07;;;9.40;;
5752;SDS011;2901;42.140;24.760;2024-01-11T07:35:45;13.57;;;8.60;;
5752;SDS011;2901;42.140;24.760;2024-01-11T07:38:11;15.73;;;9.43;;
5752;SDS011;2901;42.140;24.760;2024-01-11T07:40:36;8.20;;;7.23;;
5752;SDS011;2901;42.140;24.760;2024-01-11T07:43:01;9.70;;;7.97;;
5752;SDS011;2901;42.140;24.760;2024-01-11T07:45:29;10.17;;;8.17;;
5752;SDS011;2901;42.140;24.760;2024-01-11T07:47:55;13.70;;;8.53;;
5752;SDS011;2901;42.140;24.760;2024-01-11T07:50:20;16.10;;;8.70;;
5752;SDS011;2901;42.140;24.760;2024-01-11T07:52:45;15.33;;;8.93;;
5752;SDS011;2901;42.140;24.760;2024-01-11T07:55:11;10.43;;;7.50;;
5752;SDS011;2901;42.140;24.760;2024-01-11T07:57:37;9.07;;;8.20;;
5752;SDS011;2901;42.140;24.760;2024-01-11T08:00:04;8.60;;;7.90;;
5752;SDS011;2901;42.140;24.760;2024-01-11T08:02:31;8.80;;;7.90;;
5752;SDS011;2901;42.140;24.760;2024-01-11T08:04:57;8.20;;;7.47;;
5752;SDS011;2901;42.140;24.760;2024-01-11T08:07:24;9.40;;;8.30;;
5752;SDS011;2901;42.140;24.760;2024-01-11T08:09:50;9.40;;;8.50;;
5752;SDS011;2901;42.140;24.760;2024-01-11T08:12:16;9.63;;;8.20;;
5752;SDS011;2901;42.140;24.760;2024-01-11T08:14:41;10.33;;;9.30;;
5752;SDS011;2901;42.140;24.760;2024-01-11T08:17:07;9.80;;;8.83;;
5752;SDS011;2901;42.140;24.760;2024-01-11T08:19:33;13.90;;;9.70;;
5752;SDS011;2901;42.140;24.760;2024-01-11T08:21:59;11.57;;;9.20;;
5752;SDS011;2901;42.140;24.760;2024-01-11T08:24:24;9.23;;;8.17;;
5752;SDS011;2901;42.140;24.760;2024-01-11T08:26:52;11.63;;;9.13;;
5752;SDS011;2901;42.140;24.760;2024-01-11T08:29:18;10.83;;;9.07;;
5752;SDS011;2901;42.140;24.760;2024-01-11T08:31:47;11.10;;;9.40;;
5752;SDS011;2901;42.140;24.760;2024-01-11T08:34:12;9.90;;;8.90;;
5752;SDS011;2901;42.140;24.760;2024-01-11T08:36:38;12.07;;;9.10;;
5752;SDS011;2901;42.140;24.760;2024-01-11T08:39:04;10.60;;;9.43;;
5752;SDS011;2901;42.140;24.760;2024-01-11T08:41:36;10.97;;;9.47;;
5752;SDS011;2901;42.140;24.760;2024-01-11T08:44:02;10.57;;;9.23;;
5752;SDS011;2901;42.140;24.760;2024-01-11T08:46:30;11.33;;;8.63;;
5752;SDS011;2901;42.140;24.760;2024-01-11T08:48:58;10.93;;;9.77;;
5752;SDS011;2901;42.140;24.760;2024-01-11T08:51:23;12.77;;;10.00;;
5752;SDS011;2901;42.140;24.760;2024-01-11T08:53:49;11.20;;;10.17;;
5752;SDS011;2901;42.140;24.760;2024-01-11T08:56:14;11.03;;;9.93;;
5752;SDS011;2901;42.140;24.760;2024-01-11T08:58:42;12.87;;;9.30;;
5752;SDS011;2901;42.140;24.760;2024-01-11T09:01:07;9.57;;;8.67;;
5752;SDS011;2901;42.140;24.760;2024-01-11T09:03:35;9.77;;;8.87;;
5752;SDS011;2901;42.140;24.760;2024-01-11T09:06:02;10.37;;;9.27;;
5752;SDS011;2901;42.140;24.760;2024-01-11T09:08:28;12.90;;;10.27;;
5752;SDS011;2901;42.140;24.760;2024-01-11T09:10:54;11.00;;;9.43;;
5752;SDS011;2901;42.140;24.760;2024-01-11T09:13:20;10.40;;;9.33;;
5752;SDS011;2901;42.140;24.760;2024-01-11T09:15:46;12.33;;;9.40;;
5752;SDS011;2901;42.140;24.760;2024-01-11T09:18:11;12.13;;;8.00;;
5752;SDS011;2901;42.140;24.760;2024-01-11T09:20:36;9.77;;;8.87;;
5752;SDS011;2901;42.140;24.760;2024-01-11T09:23:02;9.23;;;8.43;;
5752;SDS011;2901;42.140;24.760;2024-01-11T09:25:31;11.23;;;8.63;;
5752;SDS011;2901;42.140;24.760;2024-01-11T09:27:57;7.30;;;6.70;;
5752;SDS011;2901;42.140;24.760;2024-01-11T09:30:22;9.00;;;7.33;;
5752;SDS011;2901;42.140;24.760;2024-01-11T09:32:48;8.97;;;7.60;;
5752;SDS011;2901;42.140;24.760;2024-01-11T09:35:13;7.30;;;6.80;;
5752;SDS011;2901;42.140;24.760;2024-01-11T09:37:39;9.23;;;7.60;;
5752;SDS011;2901;42.140;24.760;2024-01-11T09:40:05;7.43;;;6.83;;
5752;SDS011;2901;42.140;24.760;2024-01-11T09:42:35;7.87;;;7.20;;
5752;SDS011;2901;42.140;24.760;2024-01-11T09:45:07;7.83;;;7.20;;
5752;SDS011;2901;42.140;24.760;2024-01-11T09:47:34;7.60;;;7.00;;
5752;SDS011;2901;42.140;24.760;2024-01-11T09:50:02;8.03;;;7.30;;
5752;SDS011;2901;42.140;24.760;2024-01-11T09:52:28;14.23;;;7.10;;
5752;SDS011;2901;42.140;24.760;2024-01-11T09:54:54;7.47;;;6.97;;
5752;SDS011;2901;42.140;24.760;2024-01-11T09:57:23;10.27;;;7.70;;
5752;SDS011;2901;42.140;24.760;2024-01-11T09:59:52;7.33;;;6.70;;
5752;SDS011;2901;42.140;24.760;2024-01-11T10:02:19;7.70;;;6.03;;
5752;SDS011;2901;42.140;24.760;2024-01-11T10:04:45;8.40;;;7.50;;
5752;SDS011;2901;42.140;24.760;2024-01-11T10:07:11;9.87;;;7.87;;
5752;SDS011;2901;42.140;24.760;2024-01-11T10:09:38;8.83;;;7.93;;
5752;SDS011;2901;42.140;24.760;2024-01-11T10:12:04;14.10;;;8.07;;
5752;SDS011;2901;42.140;24.760;2024-01-11T10:14:30;12.27;;;8.20;;
5752;SDS011;2901;42.140;24.760;2024-01-11T10:16:56;10.93;;;7.67;;
5752;SDS011;2901;42.140;24.760;2024-01-11T10:19:22;14.80;;;8.70;;
5752;SDS011;2901;42.140;24.760;2024-01-11T10:21:47;8.83;;;7.90;;
5752;SDS011;2901;42.140;24.760;2024-01-11T10:24:17;12.63;;;8.27;;
5752;SDS011;2901;42.140;24.760;2024-01-11T10:26:43;9.43;;;7.70;;
5752;SDS011;2901;42.140;24.760;2024-01-11T10:29:09;8.63;;;7.77;;
5752;SDS011;2901;42.140;24.760;2024-01-11T10:31:36;9.00;;;7.97;;
5752;SDS011;2901;42.140;24.760;2024-01-11T10:34:02;10.27;;;7.97;;
5752;SDS011;2901;42.140;24.760;2024-01-11T10:36:32;12.80;;;7.57;;
5752;SDS011;2901;42.140;24.760;2024-01-11T10:38:59;9.90;;;7.83;;
5752;SDS011;2901;42.140;24.760;2024-01-11T10:41:29;8.70;;;7.90;;
5752;SDS011;2901;42.140;24.760;2024-01-11T10:44:00;11.70;;;8.33;;
5752;SDS011;2901;42.140;24.760;2024-01-11T10:46:28;7.93;;;7.13;;
5752;SDS011;2901;42.140;24.760;2024-01-11T10:48:54;9.07;;;8.17;;
5752;SDS011;2901;42.140;24.760;2024-01-11T10:51:24;8.07;;;7.50;;
5752;SDS011;2901;42.140;24.760;2024-01-11T10:53:53;8.17;;;7.50;;
5752;SDS011;2901;42.140;24.760;2024-01-11T10:56:19;14.23;;;8.47;;
5752;SDS011;2901;42.140;24.760;2024-01-11T10:58:45;12.33;;;7.83;;
5752;SDS011;2901;42.140;24.760;2024-01-11T11:01:12;8.53;;;7.83;;
5752;SDS011;2901;42.140;24.760;2024-01-11T11:03:38;14.43;;;8.67;;
5752;SDS011;2901;42.140;24.760;2024-01-11T11:06:04;12.63;;;8.43;;
5752;SDS011;2901;42.140;24.760;2024-01-11T11:08:34;10.30;;;8.43;;
5752;SDS011;2901;42.140;24.760;2024-01-11T11:11:02;17.97;;;8.53;;
5752;SDS011;2901;42.140;24.760;2024-01-11T11:13:31;8.60;;;7.77;;
5752;SDS011;2901;42.140;24.760;2024-01-11T11:15:57;14.93;;;7.37;;
5752;SDS011;2901;42.140;24.760;2024-01-11T11:18:23;8.47;;;7.53;;
5752;SDS011;2901;42.140;24.760;2024-01-11T11:20:49;10.60;;;9.20;;
5752;SDS011;2901;42.140;24.760;2024-01-11T11:23:16;14.55;;;9.00;;
5752;SDS011;2901;42.140;24.760;2024-01-11T11:25:43;8.97;;;8.20;;
5752;SDS011;2901;42.140;24.760;2024-01-11T11:28:11;11.77;;;8.60;;
5752;SDS011;2901;42.140;24.760;2024-01-11T11:30:38;9.47;;;8.17;;
5752;SDS011;2901;42.140;24.760;2024-01-11T11:33:22;10.33;;;7.83;;
5752;SDS011;2901;42.140;24.760;2024-01-11T11:35:51;10.00;;;9.07;;
5752;SDS011;2901;42.140;24.760;2024-01-11T11:38:20;9.03;;;7.80;;
5752;SDS011;2901;42.140;24.760;2024-01-11T11:40:47;8.37;;;7.63;;
5752;SDS011;2901;42.140;24.760;2024-01-11T11:43:16;9.17;;;8.37;;
5752;SDS011;2901;42.140;24.760;2024-01-11T11:45:43;9.60;;;7.80;;
5752;SDS011;2901;42.140;24.760;2024-01-11T11:51:07;8.20;;;7.50;;
5752;SDS011;2901;42.140;24.760;2024-01-11T11:53:34;16.93;;;7.50;;
5752;SDS011;2901;42.140;24.760;2024-01-11T11:56:00;8.57;;;7.77;;
5752;SDS011;2901;42.140;24.760;2024-01-11T11:58:27;8.30;;;7.47;;
5752;SDS011;2901;42.140;24.760;2024-01-11T12:00:52;20.53;;;8.30;;
5752;SDS011;2901;42.140;24.760;2024-01-11T12:03:18;9.47;;;8.30;;
5752;SDS011;2901;42.140;24.760;2024-01-11T12:05:44;8.63;;;7.83;;
5752;SDS011;2901;42.140;24.760;2024-01-11T12:08:09;7.30;;;6.68;;
5752;SDS011;2901;42.140;24.760;2024-01-11T12:10:35;6.97;;;6.47;;
5752;SDS011;2901;42.140;24.760;2024-01-11T12:13:01;7.17;;;6.30;;
5752;SDS011;2901;42.140;24.760;2024-01-11T12:15:27;10.10;;;6.25;;
5752;SDS011;2901;42.140;24.760;2024-01-11T12:17:59;15.18;;;9.15;;
5752;SDS011;2901;42.140;24.760;2024-01-11T12:20:24;8.38;;;7.47;;
5752;SDS011;2901;42.140;24.760;2024-01-11T12:22:50;7.27;;;6.63;;
5752;SDS011;2901;42.140;24.760;2024-01-11T12:25:15;7.45;;;6.93;;
5752;SDS011;2901;42.140;24.760;2024-01-11T12:27:41;9.73;;;6.78;;
5752;SDS011;2901;42.140;24.760;2024-01-11T12:30:07;6.72;;;6.20;;
5752;SDS011;2901;42.140;24.760;2024-01-11T12:32:36;10.97;;;6.20;;
5752;SDS011;2901;42.140;24.760;2024-01-11T12:35:01;6.65;;;6.05;;
5752;SDS011;2901;42.140;24.760;2024-01-11T12:37:29;6.67;;;6.00;;
5752;SDS011;2901;42.140;24.760;2024-01-11T12:39:58;6.63;;;6.10;;
5752;SDS011;2901;42.140;24.760;2024-01-11T12:42:24;6.10;;;5.63;;
5752;SDS011;2901;42.140;24.760;2024-01-11T12:44:50;6.07;;;5.60;;
5752;SDS011;2901;42.140;24.760;2024-01-11T12:47:16;7.15;;;6.55;;
5752;SDS011;2901;42.140;24.760;2024-01-11T12:49:43;6.38;;;5.88;;
5752;SDS011;2901;42.140;24.760;2024-01-11T12:52:20;8.07;;;5.72;;
5752;SDS011;2901;42.140;24.760;2024-01-11T12:54:45;7.22;;;6.07;;
5752;SDS011;2901;42.140;24.760;2024-01-11T12:57:12;8.70;;;6.03;;
5752;SDS011;2901;42.140;24.760;2024-01-11T12:59:42;5.05;;;4.60;;
5752;SDS011;2901;42.140;24.760;2024-01-11T13:02:08;5.15;;;4.85;;
5752;SDS011;2901;42.140;24.760;2024-01-11T13:04:38;5.75;;;4.85;;
5752;SDS011;2901;42.140;24.760;2024-01-11T13:07:03;11.07;;;10.15;;
5752;SDS011;2901;42.140;24.760;2024-01-11T13:09:29;10.50;;;9.57;;
5752;SDS011;2901;42.140;24.760;2024-01-11T13:11:54;11.38;;;10.02;;
5752;SDS011;2901;42.140;24.760;2024-01-11T13:14:19;29.20;;;10.90;;
5752;SDS011;2901;42.140;24.760;2024-01-11T13:16:45;14.98;;;9.45;;
5752;SDS011;2901;42.140;24.760;2024-01-11T13:19:11;17.10;;;9.52;;
5752;SDS011;2901;42.140;24.760;2024-01-11T13:21:37;17.48;;;9.63;;
5752;SDS011;2901;42.140;24.760;2024-01-11T13:24:03;20.45;;;10.50;;
5752;SDS011;2901;42.140;24.760;2024-01-11T13:26:29;19.85;;;10.68;;
5752;SDS011;2901;42.140;24.760;2024-01-11T13:28:54;16.98;;;10.73;;
5752;SDS011;2901;42.140;24.760;2024-01-11T13:31:20;21.95;;;10.52;;
5752;SDS011;2901;42.140;24.760;2024-01-11T13:33:46;20.20;;;10.80;;
5752;SDS011;2901;42.140;24.760;2024-01-11T13:36:11;15.63;;;10.68;;
5752;SDS011;2901;42.140;24.760;2024-01-11T13:38:37;16.98;;;10.35;;
5752;SDS011;2901;42.140;24.760;2024-01-11T13:41:02;20.33;;;10.35;;
5752;SDS011;2901;42.140;24.760;2024-01-11T13:43:30;15.35;;;9.93;;
5752;SDS011;2901;42.140;24.760;2024-01-11T13:45:55;10.68;;;9.35;;
5752;SDS011;2901;42.140;24.760;2024-01-11T13:48:20;18.33;;;10.48;;
5752;SDS011;2901;42.140;24.760;2024-01-11T13:50:46;21.88;;;10.40;;
5752;SDS011;2901;42.140;24.760;2024-01-11T13:53:11;12.43;;;10.48;;
5752;SDS011;2901;42.140;24.760;2024-01-11T13:55:37;12.52;;;10.50;;
5752;SDS011;2901;42.140;24.760;2024-01-11T13:58:05;22.58;;;11.40;;
5752;SDS011;2901;42.140;24.760;2024-01-11T14:00:31;18.58;;;10.35;;
5752;SDS011;2901;42.140;24.760;2024-01-11T14:02:56;12.60;;;9.17;;
5752;SDS011;2901;42.140;24.760;2024-01-11T14:05:22;20.27;;;9.85;;
5752;SDS011;2901;42.140;24.760;2024-01-11T14:07:47;16.00;;;9.93;;
5752;SDS011;2901;42.140;24.760;2024-01-11T14:10:13;19.77;;;10.63;;
5752;SDS011;2901;42.140;24.760;2024-01-11T14:12:40;14.77;;;11.53;;
5752;SDS011;2901;42.140;24.760;2024-01-11T14:15:07;15.13;;;11.33;;
5752;SDS011;2901;42.140;24.760;2024-01-11T14:17:36;14.67;;;10.63;;
5752;SDS011;2901;42.140;24.760;2024-01-11T14:20:02;20.50;;;10.20;;
5752;SDS011;2901;42.140;24.760;2024-01-11T14:22:28;16.90;;;10.50;;
5752;SDS011;2901;42.140;24.760;2024-01-11T14:24:53;23.77;;;11.70;;
5752;SDS011;2901;42.140;24.760;2024-01-11T14:27:22;13.83;;;10.03;;
5752;SDS011;2901;42.140;24.760;2024-01-11T14:29:48;13.03;;;9.27;;
5752;SDS011;2901;42.140;24.760;2024-01-11T14:32:14;17.60;;;10.67;;
5752;SDS011;2901;42.140;24.760;2024-01-11T14:34:42;21.30;;;10.73;;
5752;SDS011;2901;42.140;24.760;2024-01-11T14:37:09;21.77;;;11.50;;
5752;SDS011;2901;42.140;24.760;2024-01-11T14:39:35;22.27;;;13.23;;
5752;SDS011;2901;42.140;24.760;2024-01-11T14:42:01;25.13;;;12.67;;